createdAt,value
2018-07-14T09:40:54.949Z,101274.45
2018-07-14T09:43:59.196Z,101267.87
2018-07-14T09:47:02.717Z,101265.48
2018-07-14T09:50:06.466Z,101268.33
2018-07-14T09:53:09.990Z,101258.84
2018-07-14T09:56:13.488Z,101272.34
2018-07-14T09:59:18.157Z,101262.48
2018-07-14T10:02:21.724Z,101259.84
2018-07-14T10:05:27.285Z,101256.03
2018-07-14T10:08:32.412Z,101257.47
2018-07-14T10:11:44.102Z,101258.13
2018-07-14T10:14:49.383Z,101257.80
2018-07-14T10:17:53.484Z,101257.81
2018-07-14T10:21:01.332Z,101252.42
2018-07-14T10:24:05.211Z,101263.83
2018-07-14T10:27:11.150Z,101270.48
2018-07-14T10:30:16.753Z,101258.14
2018-07-14T10:33:22.172Z,101249.45
2018-07-14T10:36:29.409Z,101261.88
2018-07-14T10:39:34.456Z,101260.09
2018-07-14T10:42:38.275Z,101258.48
2018-07-14T10:45:54.857Z,101255.75
2018-07-14T10:49:01.968Z,101253.02
2018-07-14T10:52:06.069Z,101253.03
2018-07-14T10:55:14.157Z,101254.23
2018-07-14T10:58:19.186Z,101251.50
2018-07-14T11:04:37.467Z,101241.77
2018-07-14T11:07:59.407Z,101244.37
2018-07-14T11:11:05.327Z,101251.23
2018-07-14T11:14:11.260Z,101249.70
2018-07-14T11:17:18.347Z,101242.48
2018-07-14T11:20:27.446Z,101242.47
2018-07-14T11:23:36.689Z,101248.73
2018-07-14T11:26:43.847Z,101241.28
2018-07-14T11:29:49.710Z,101244.48
2018-07-14T11:32:55.326Z,101237.34
2018-07-14T11:36:01.328Z,101238.20
2018-07-14T11:39:07.277Z,101237.13
2018-07-14T11:42:12.417Z,101235.48
2018-07-14T11:45:16.537Z,101235.48
2018-07-14T11:48:21.656Z,101229.87
2018-07-14T11:51:27.822Z,101228.45
2018-07-14T11:54:33.640Z,101226.51
2018-07-14T11:57:37.721Z,101225.25
2018-07-14T12:00:43.604Z,101227.14
2018-07-14T12:03:50.786Z,101231.03
2018-07-14T12:07:00.191Z,101213.03
2018-07-14T12:10:09.556Z,101218.39
2018-07-14T12:13:13.457Z,101212.63
2018-07-14T12:16:20.115Z,101210.34
2018-07-14T12:19:27.008Z,101210.86
2018-07-14T12:22:32.058Z,101214.23
2018-07-14T12:25:54.504Z,101202.98
2018-07-14T12:29:01.496Z,101204.42
2018-07-14T12:32:08.680Z,101203.00
2018-07-14T12:35:12.875Z,101198.11
2018-07-14T12:38:17.794Z,101199.34
2018-07-14T12:41:28.899Z,101191.19
2018-07-14T12:44:36.183Z,101185.08
2018-07-14T12:47:40.042Z,101187.16
2018-07-14T12:50:45.248Z,101183.05
2018-07-14T12:53:53.453Z,101186.92
2018-07-14T12:56:59.161Z,101191.38
2018-07-14T13:03:46.049Z,101184.34
2018-07-14T13:06:57.167Z,101191.05
2018-07-14T13:10:04.265Z,101183.34
2018-07-14T13:13:08.729Z,101175.05
2018-07-14T13:19:40.621Z,101162.87
2018-07-14T13:22:52.840Z,101165.52
2018-07-14T13:25:59.922Z,101169.70
2018-07-14T13:29:18.818Z,101160.41
2018-07-14T13:32:35.735Z,101156.63
2018-07-14T13:35:52.018Z,101148.13
2018-07-14T13:39:10.905Z,101147.59
2018-07-14T13:42:22.211Z,101150.03
2018-07-14T13:45:38.873Z,101150.57
2018-07-14T13:49:02.119Z,101142.86
2018-07-14T13:52:12.126Z,101141.84
2018-07-14T13:55:28.608Z,101131.38
2018-07-14T13:58:37.659Z,101132.42
2018-07-14T14:01:44.298Z,101134.70
2018-07-14T14:05:10.875Z,101134.14
2018-07-14T14:14:55.033Z,101125.36
2018-07-14T14:18:09.237Z,101129.21
2018-07-14T14:21:14.057Z,101114.03
2018-07-14T14:24:25.272Z,101115.00
2018-07-14T14:27:32.288Z,101109.30
2018-07-14T14:30:45.403Z,101112.20
2018-07-14T14:33:55.100Z,101109.84
2018-07-14T14:37:03.188Z,101106.89
2018-07-14T14:40:10.285Z,101104.16
2018-07-14T14:43:19.966Z,101100.20
2018-07-14T14:46:27.820Z,101090.85
2018-07-14T14:49:35.659Z,101102.09
2018-07-14T14:52:47.231Z,101102.78
2018-07-14T14:55:52.653Z,101092.00
2018-07-14T14:59:00.358Z,101093.36
2018-07-14T15:02:13.695Z,101098.98
2018-07-14T15:05:18.524Z,101089.34
2018-07-14T15:15:28.564Z,101077.82
2018-07-14T15:18:37.440Z,101086.11
2018-07-14T15:21:44.657Z,101087.70
2018-07-14T15:28:09.150Z,101082.25
2018-07-14T15:31:25.627Z,101086.70
2018-07-14T15:38:02.737Z,101077.27
2018-07-14T15:41:09.629Z,101079.23
2018-07-14T15:44:13.405Z,101086.78
2018-07-14T15:47:17.379Z,101082.69
2018-07-14T15:50:23.772Z,101072.22
2018-07-14T15:53:29.052Z,101081.83
2018-07-14T15:56:32.763Z,101073.20
2018-07-14T15:59:36.580Z,101072.44
2018-07-14T16:02:41.617Z,101064.50
2018-07-14T16:09:10.396Z,101067.00
2018-07-14T16:12:21.204Z,101058.84
2018-07-14T16:15:25.725Z,101068.89
2018-07-14T16:18:40.283Z,101069.92
2018-07-14T16:21:48.693Z,101064.16
2018-07-14T16:24:54.211Z,101071.45
2018-07-14T16:27:58.896Z,101071.62
2018-07-14T16:31:06.072Z,101067.05
2018-07-14T16:34:11.777Z,101064.48
2018-07-14T16:37:20.474Z,101065.34
2018-07-14T16:40:28.706Z,101070.27
2018-07-14T16:43:36.109Z,101065.14
2018-07-14T16:46:45.906Z,101065.81
2018-07-14T16:49:51.753Z,101066.16
2018-07-14T16:52:59.520Z,101068.89
2018-07-14T16:56:05.455Z,101065.84
2018-07-14T16:59:12.736Z,101062.09
2018-07-14T17:02:16.469Z,101062.58
2018-07-14T17:05:29.403Z,101062.25
2018-07-14T17:08:37.252Z,101064.15
2018-07-14T17:11:45.486Z,101066.69
2018-07-14T17:14:55.987Z,101063.81
2018-07-14T17:18:01.119Z,101063.81
2018-07-14T17:21:06.973Z,101064.11
2018-07-14T17:24:21.750Z,101062.09
2018-07-14T17:27:30.971Z,101052.95
2018-07-14T17:50:52.164Z,101065.04
2018-07-14T17:54:02.804Z,101061.98
2018-07-14T17:57:16.686Z,101057.59
2018-07-14T18:00:40.776Z,101063.00
2018-07-14T18:03:45.849Z,101067.39
2018-07-14T18:07:02.730Z,101071.11
2018-07-14T18:10:16.763Z,101070.73
2018-07-14T18:13:25.793Z,101068.59
2018-07-14T18:16:33.960Z,101078.47
2018-07-14T18:19:50.491Z,101075.49
2018-07-14T18:22:56.898Z,101075.60
2018-07-14T18:26:07.773Z,101068.45
2018-07-14T18:29:15.531Z,101067.78
2018-07-14T18:32:22.899Z,101066.30
2018-07-14T18:35:31.711Z,101069.70
2018-07-14T18:38:48.938Z,101074.20
2018-07-14T18:41:59.989Z,101074.59
2018-07-14T18:45:05.815Z,101081.11
2018-07-14T18:48:18.800Z,101087.06
2018-07-14T18:51:23.369Z,101089.20
2018-07-14T18:54:29.044Z,101090.05
2018-07-14T18:57:38.916Z,101101.92
2018-07-14T19:00:43.836Z,101103.09
2018-07-14T19:03:48.099Z,101093.88
2018-07-14T19:06:52.406Z,101107.36
2018-07-14T19:09:58.090Z,101113.95
2018-07-14T19:13:02.373Z,101108.78
2018-07-14T19:16:07.494Z,101111.63
2018-07-14T19:19:11.495Z,101120.29
2018-07-14T19:26:06.935Z,101120.70
2018-07-14T19:32:53.164Z,101129.42
2018-07-14T20:03:44.843Z,101148.87
2018-07-14T20:07:15.066Z,101147.17
2018-07-14T20:10:36.995Z,101144.78
2018-07-14T20:17:26.769Z,101145.69
2018-07-14T20:21:39.693Z,101151.41
2018-07-14T20:24:46.168Z,101148.87
2018-07-14T20:27:51.726Z,101151.19
2018-07-14T20:31:01.196Z,101154.34
2018-07-14T20:34:19.822Z,101153.36
2018-07-14T20:37:36.594Z,101149.52
2018-07-14T20:40:44.166Z,101132.43
2018-07-14T20:43:47.747Z,101157.14
2018-07-14T20:46:57.186Z,101163.80
2018-07-14T20:53:54.444Z,101166.25
2018-07-14T21:00:28.660Z,101172.47
2018-07-14T21:03:40.968Z,101169.88
2018-07-14T21:06:56.393Z,101172.59
2018-07-14T21:10:01.684Z,101160.91
2018-07-14T21:13:05.602Z,101182.59
2018-07-14T21:16:15.287Z,101181.81
2018-07-14T21:19:39.253Z,101177.64
2018-07-14T21:22:44.817Z,101167.68
2018-07-14T21:25:56.308Z,101170.95
2018-07-14T21:29:03.072Z,101174.08
2018-07-14T21:38:50.786Z,101171.73
2018-07-14T21:41:56.801Z,101171.10
2018-07-14T21:45:03.312Z,101172.30
2018-07-14T21:48:18.780Z,101181.71
2018-07-14T21:51:27.467Z,101179.60
2018-07-14T21:54:33.347Z,101185.58
2018-07-14T21:57:37.225Z,101184.69
2018-07-14T22:00:46.449Z,101184.25
2018-07-14T22:03:51.951Z,101188.40
2018-07-14T22:06:56.981Z,101183.45
2018-07-14T22:10:01.609Z,101186.16
2018-07-14T22:13:05.502Z,101190.62
2018-07-14T22:16:10.156Z,101196.57
2018-07-14T22:19:15.630Z,101192.73
2018-07-14T22:22:20.048Z,101187.03
2018-07-14T22:25:24.159Z,101168.37
2018-07-14T22:28:27.824Z,101185.20
2018-07-14T22:31:31.358Z,101186.13
2018-07-14T22:34:34.957Z,101191.69
2018-07-14T22:37:38.672Z,101193.14
2018-07-14T22:40:42.169Z,101188.50
2018-07-14T22:43:45.748Z,101190.73
2018-07-14T22:46:49.950Z,101190.98
2018-07-14T22:49:53.497Z,101189.30
2018-07-14T22:52:57.046Z,101189.70
2018-07-14T22:56:00.769Z,101191.09
2018-07-14T22:59:04.670Z,101192.71
2018-07-14T23:02:09.376Z,101189.39
2018-07-14T23:05:13.166Z,101184.16
2018-07-14T23:08:16.812Z,101186.10
2018-07-14T23:11:22.233Z,101190.38
2018-07-14T23:14:25.881Z,101190.64
2018-07-14T23:17:30.093Z,101185.50
2018-07-14T23:20:33.830Z,101188.75
2018-07-14T23:23:38.438Z,101183.48
2018-07-14T23:26:42.103Z,101177.03
2018-07-14T23:29:45.845Z,101185.14
2018-07-14T23:32:49.605Z,101181.47
2018-07-14T23:35:53.236Z,101178.63
2018-07-14T23:38:56.884Z,101175.72
2018-07-14T23:42:01.664Z,101176.08
2018-07-14T23:45:06.857Z,101181.70
2018-07-14T23:48:10.482Z,101174.96
2018-07-14T23:51:14.101Z,101172.63
2018-07-14T23:54:18.701Z,101175.47
2018-07-14T23:57:25.149Z,101173.88
